createdAt,value
2022-10-01T00:00:48.211Z,12.30
2022-10-01T00:03:22.295Z,12.30
2022-10-01T00:06:01.945Z,12.30
2022-10-01T00:08:35.084Z,12.20
2022-10-01T00:11:10.277Z,12.20
2022-10-01T00:13:44.269Z,12.20
2022-10-01T00:16:18.906Z,12.20
2022-10-01T00:18:53.620Z,12.20
2022-10-01T00:21:27.760Z,12.20
2022-10-01T00:24:01.788Z,12.20
2022-10-01T00:26:37.861Z,12.20
2022-10-01T00:29:12.014Z,12.20
2022-10-01T00:31:45.241Z,12.20
2022-10-01T00:34:18.367Z,12.20
2022-10-01T00:36:51.652Z,12.20
2022-10-01T00:39:24.781Z,12.20
2022-10-01T00:41:59.389Z,12.20
2022-10-01T00:44:33.956Z,12.20
2022-10-01T00:47:10.633Z,12.10
2022-10-01T00:49:44.054Z,12.10
2022-10-01T00:52:19.611Z,12.10
2022-10-01T00:54:54.788Z,12.10
2022-10-01T00:57:29.672Z,12.10
2022-10-01T01:00:03.843Z,12.10
2022-10-01T01:02:36.978Z,12.10
2022-10-01T01:05:13.518Z,12.10
2022-10-01T01:07:48.006Z,12.20
2022-10-01T01:10:26.094Z,12.10
2022-10-01T01:13:13.598Z,12.10
2022-10-01T01:15:49.803Z,12.10
2022-10-01T01:18:25.116Z,12.10
2022-10-01T01:21:07.375Z,12.10
2022-10-01T01:24:05.450Z,12.10
2022-10-01T01:26:43.323Z,12.10
2022-10-01T01:29:21.723Z,12.10
2022-10-01T01:31:56.475Z,12.10
2022-10-01T01:34:31.846Z,12.10
2022-10-01T01:37:12.085Z,12.10
2022-10-01T01:39:46.874Z,12.10
2022-10-01T01:42:23.562Z,12.10
2022-10-01T01:44:59.285Z,12.10
2022-10-01T01:47:33.569Z,12.10
2022-10-01T01:50:08.240Z,12.10
2022-10-01T01:52:41.594Z,12.10
2022-10-01T01:55:14.742Z,12.10
2022-10-01T01:57:47.880Z,12.10
2022-10-01T02:00:22.838Z,12.10
2022-10-01T02:02:57.057Z,12.10
2022-10-01T02:05:34.069Z,12.10
2022-10-01T02:08:15.697Z,12.00
2022-10-01T02:10:59.954Z,12.00
2022-10-01T02:13:38.320Z,12.00
2022-10-01T02:16:19.136Z,12.00
2022-10-01T02:18:55.975Z,12.00
2022-10-01T02:21:32.497Z,12.00
2022-10-01T02:24:08.490Z,12.00
2022-10-01T02:26:43.373Z,12.00
2022-10-01T02:29:18.236Z,12.00
2022-10-01T02:31:55.707Z,12.00
2022-10-01T02:34:30.912Z,11.90
2022-10-01T02:37:05.365Z,11.90
2022-10-01T02:39:41.088Z,11.90
2022-10-01T02:42:14.661Z,12.00
2022-10-01T02:44:48.494Z,11.90
2022-10-01T02:47:25.142Z,11.90
2022-10-01T02:49:58.291Z,12.00
2022-10-01T02:52:33.812Z,12.00
2022-10-01T02:55:09.931Z,12.00
2022-10-01T02:57:42.215Z,12.00
2022-10-01T03:00:16.517Z,11.90
2022-10-01T03:02:51.489Z,12.00
2022-10-01T03:05:24.926Z,11.90
2022-10-01T03:07:58.146Z,11.90
2022-10-01T03:10:31.229Z,11.90
2022-10-01T03:13:07.542Z,11.90
2022-10-01T03:15:40.714Z,12.00
2022-10-01T03:18:15.432Z,12.00
2022-10-01T03:20:48.983Z,12.00
2022-10-01T03:23:22.249Z,12.00
2022-10-01T03:25:55.331Z,12.00
2022-10-01T03:28:28.633Z,12.00
2022-10-01T03:31:09.145Z,12.00
2022-10-01T03:33:43.826Z,12.00
2022-10-01T03:36:17.049Z,12.00
2022-10-01T03:38:50.150Z,12.00
2022-10-01T03:41:23.445Z,12.00
2022-10-01T03:44:00.369Z,12.00
2022-10-01T03:46:34.103Z,12.00
2022-10-01T03:49:08.709Z,12.00
2022-10-01T03:51:41.868Z,12.00
2022-10-01T03:54:15.332Z,12.00
2022-10-01T03:56:48.988Z,12.00
2022-10-01T03:59:22.146Z,12.00
2022-10-01T04:01:55.691Z,12.00
2022-10-01T04:04:30.421Z,12.00
2022-10-01T04:07:03.601Z,12.00
2022-10-01T04:09:37.653Z,12.00
2022-10-01T04:12:10.869Z,12.00
2022-10-01T04:14:43.968Z,12.00
2022-10-01T04:17:17.153Z,12.00
2022-10-01T04:19:51.553Z,12.00
2022-10-01T04:22:24.801Z,12.00
2022-10-01T04:24:57.879Z,12.00
2022-10-01T04:27:31.050Z,12.00
2022-10-01T04:30:04.520Z,12.00
2022-10-01T04:32:38.413Z,12.00
2022-10-01T04:35:13.028Z,12.00
2022-10-01T04:37:46.218Z,12.00
2022-10-01T04:40:19.387Z,12.00
2022-10-01T04:42:52.638Z,11.90
2022-10-01T04:45:25.910Z,11.90
2022-10-01T04:47:59.805Z,12.00
2022-10-01T04:50:34.482Z,11.90
2022-10-01T04:53:07.599Z,12.00
2022-10-01T04:55:40.669Z,12.00
2022-10-01T04:58:14.135Z,12.00
2022-10-01T05:00:47.242Z,12.00
2022-10-01T05:03:20.444Z,12.00
2022-10-01T05:05:54.945Z,12.00
2022-10-01T05:08:28.175Z,12.00
2022-10-01T05:11:01.484Z,12.00
2022-10-01T05:13:34.695Z,12.00
2022-10-01T05:16:07.898Z,12.00
2022-10-01T05:18:41.271Z,12.00
2022-10-01T05:21:15.837Z,12.00
2022-10-01T05:23:48.969Z,12.00
2022-10-01T05:26:22.911Z,12.00
2022-10-01T05:28:56.035Z,12.00
2022-10-01T05:31:29.202Z,12.00
2022-10-01T05:34:02.313Z,12.10
2022-10-01T05:36:36.930Z,12.10
2022-10-01T05:39:10.458Z,12.10
2022-10-01T05:41:43.648Z,12.10
2022-10-01T05:44:16.757Z,12.10
2022-10-01T05:46:50.418Z,12.10
2022-10-01T05:49:24.497Z,12.20
2022-10-01T05:52:01.143Z,12.20
2022-10-01T05:54:34.592Z,12.20
2022-10-01T05:57:08.197Z,12.30
2022-10-01T05:59:41.334Z,12.30
2022-10-01T06:02:14.703Z,12.30
2022-10-01T06:04:48.000Z,12.40
2022-10-01T06:07:22.462Z,12.40
2022-10-01T06:09:55.589Z,12.40
2022-10-01T06:12:28.662Z,12.40
2022-10-01T06:15:01.883Z,12.50
2022-10-01T06:17:34.957Z,12.50
2022-10-01T06:20:08.536Z,12.50
2022-10-01T06:22:43.886Z,12.50
2022-10-01T06:25:17.246Z,12.60
2022-10-01T06:27:54.267Z,12.60
2022-10-01T06:30:28.202Z,12.70
2022-10-01T06:33:02.831Z,12.80
2022-10-01T06:35:36.613Z,12.80
2022-10-01T06:38:11.261Z,12.90
2022-10-01T06:40:44.699Z,12.90
2022-10-01T06:43:17.878Z,13.00
2022-10-01T06:45:51.212Z,13.10
2022-10-01T06:48:24.345Z,13.20
2022-10-01T06:50:57.734Z,13.20
2022-10-01T06:53:32.487Z,13.30
2022-10-01T06:56:06.553Z,13.30
2022-10-01T06:58:39.773Z,13.40
2022-10-01T07:01:13.051Z,13.40
2022-10-01T07:03:46.204Z,13.50
2022-10-01T07:06:19.655Z,13.60
2022-10-01T07:08:54.219Z,13.60
2022-10-01T07:11:27.587Z,13.70
2022-10-01T07:14:01.529Z,13.70
2022-10-01T07:16:34.806Z,13.80
2022-10-01T07:19:08.414Z,13.90
2022-10-01T07:21:44.426Z,13.90
2022-10-01T07:24:19.639Z,14.00
2022-10-01T07:26:55.572Z,14.10
2022-10-01T07:29:28.941Z,14.20
2022-10-01T07:32:02.398Z,14.30
2022-10-01T07:34:36.072Z,14.30
2022-10-01T07:37:09.755Z,14.40
2022-10-01T07:39:44.358Z,14.50
2022-10-01T07:42:17.544Z,14.60
2022-10-01T07:44:50.817Z,14.70
2022-10-01T07:47:23.927Z,14.80
2022-10-01T07:49:58.039Z,14.90
2022-10-01T07:52:31.178Z,15.00
2022-10-01T07:55:06.162Z,15.00
2022-10-01T07:57:39.649Z,15.10
2022-10-01T08:00:13.147Z,15.20
2022-10-01T08:02:50.787Z,15.30
2022-10-01T08:05:25.004Z,15.40
2022-10-01T08:07:59.452Z,15.50
2022-10-01T08:10:36.023Z,15.50
2022-10-01T08:13:14.684Z,15.50
2022-10-01T08:15:50.486Z,15.60
2022-10-01T08:18:24.131Z,15.70
2022-10-01T08:20:57.225Z,15.70
2022-10-01T08:23:31.590Z,15.70
2022-10-01T08:26:08.181Z,15.80
2022-10-01T08:28:41.346Z,15.80
2022-10-01T08:31:14.507Z,16.00
2022-10-01T08:33:47.635Z,16.00
2022-10-01T08:36:22.233Z,16.00
2022-10-01T08:38:55.292Z,16.10
2022-10-01T08:41:35.555Z,16.20
2022-10-01T08:44:15.334Z,16.20
2022-10-01T08:46:49.034Z,16.30
2022-10-01T08:49:25.163Z,16.30
2022-10-01T08:52:02.473Z,16.30
2022-10-01T08:54:37.451Z,16.30
2022-10-01T08:57:13.957Z,16.40
2022-10-01T08:59:48.445Z,16.40
2022-10-01T09:02:23.466Z,16.40
2022-10-01T09:05:01.284Z,16.30
2022-10-01T09:07:43.265Z,16.30
2022-10-01T09:10:21.614Z,16.30
2022-10-01T09:13:04.536Z,16.30
2022-10-01T09:15:42.330Z,16.40
2022-10-01T09:18:19.430Z,16.50
2022-10-01T09:20:54.265Z,16.40
2022-10-01T09:23:28.613Z,16.50
2022-10-01T09:26:02.060Z,16.60
2022-10-01T09:28:36.586Z,16.60
2022-10-01T09:31:23.977Z,16.60
2022-10-01T09:33:59.340Z,16.60
2022-10-01T09:36:35.804Z,16.70
2022-10-01T09:39:13.058Z,16.70
2022-10-01T09:41:46.889Z,16.90
2022-10-01T09:44:23.931Z,17.10
2022-10-01T09:46:57.128Z,17.30
2022-10-01T09:49:33.726Z,17.50
2022-10-01T09:52:09.763Z,17.60
2022-10-01T09:54:45.804Z,17.50
2022-10-01T09:57:22.620Z,17.50
2022-10-01T10:00:01.908Z,17.50
2022-10-01T10:02:43.353Z,17.40
2022-10-01T10:05:20.821Z,17.40
2022-10-01T10:07:55.214Z,17.30
2022-10-01T10:10:30.753Z,17.30
2022-10-01T10:13:09.499Z,17.20
2022-10-01T10:15:50.498Z,17.20
2022-10-01T10:18:28.020Z,17.10
2022-10-01T10:21:02.964Z,17.10
2022-10-01T10:23:36.213Z,17.00
2022-10-01T10:26:19.489Z,17.00
2022-10-01T10:28:54.070Z,17.00
2022-10-01T10:31:29.360Z,17.10
2022-10-01T10:34:07.228Z,17.30
2022-10-01T10:36:40.813Z,17.50
2022-10-01T10:39:18.969Z,17.90
2022-10-01T10:41:53.143Z,18.30
2022-10-01T10:44:28.069Z,18.60
2022-10-01T10:47:03.441Z,19.10
2022-10-01T10:49:40.716Z,19.40
2022-10-01T10:52:19.792Z,19.80
2022-10-01T10:54:53.624Z,20.10
2022-10-01T10:57:28.148Z,20.20
2022-10-01T11:00:02.217Z,20.10
2022-10-01T11:02:40.719Z,20.20
2022-10-01T11:05:18.191Z,20.30
2022-10-01T11:07:54.425Z,20.20
2022-10-01T11:10:32.305Z,19.90
2022-10-01T11:13:18.600Z,19.70
2022-10-01T11:16:09.691Z,19.60
2022-10-01T11:18:52.739Z,19.30
2022-10-01T11:21:41.819Z,19.10
2022-10-01T11:24:22.409Z,18.90
2022-10-01T11:26:59.492Z,18.80
2022-10-01T11:29:37.924Z,18.70
2022-10-01T11:32:19.468Z,18.60
2022-10-01T11:35:06.518Z,18.50
2022-10-01T11:37:44.887Z,18.50
2022-10-01T11:40:21.759Z,18.60
2022-10-01T11:42:57.105Z,18.60
2022-10-01T11:45:33.148Z,18.60
2022-10-01T11:48:18.824Z,18.70
2022-10-01T11:50:54.471Z,19.00
2022-10-01T11:53:32.322Z,19.40
2022-10-01T11:56:26.000Z,19.60
2022-10-01T11:59:02.417Z,19.80
2022-10-01T12:01:39.106Z,20.30
2022-10-01T12:04:16.649Z,20.40
2022-10-01T12:06:54.179Z,20.50
2022-10-01T12:09:30.814Z,20.30
2022-10-01T12:12:06.972Z,20.30
2022-10-01T12:14:44.395Z,20.30
2022-10-01T12:17:20.021Z,20.30
2022-10-01T12:19:54.857Z,20.40
2022-10-01T12:22:31.111Z,20.50
2022-10-01T12:25:04.662Z,20.50
2022-10-01T12:27:44.387Z,20.40
2022-10-01T12:30:19.338Z,20.30
2022-10-01T12:32:58.852Z,20.10
2022-10-01T12:35:38.415Z,20.00
2022-10-01T12:38:18.652Z,19.80
2022-10-01T12:40:55.772Z,19.80
2022-10-01T12:43:37.499Z,19.70
2022-10-01T12:46:16.605Z,19.80
2022-10-01T12:48:54.880Z,19.90
2022-10-01T12:51:39.138Z,19.80
2022-10-01T12:57:19.457Z,19.90
2022-10-01T13:00:01.006Z,19.80
2022-10-01T13:02:55.400Z,19.80
2022-10-01T13:05:31.964Z,19.60
2022-10-01T13:08:12.249Z,19.40
2022-10-01T13:10:49.734Z,19.40
2022-10-01T13:13:26.308Z,19.40
2022-10-01T13:16:02.504Z,19.40
2022-10-01T13:18:50.953Z,19.50
2022-10-01T13:21:28.664Z,19.60
2022-10-01T13:24:03.302Z,19.50
2022-10-01T13:26:39.157Z,19.40
2022-10-01T13:29:19.077Z,19.40
2022-10-01T13:31:53.382Z,19.20
2022-10-01T13:34:32.867Z,19.30
2022-10-01T13:37:16.371Z,19.40
2022-10-01T13:39:49.576Z,19.40
2022-10-01T13:42:25.255Z,19.20
2022-10-01T13:45:01.477Z,19.10
2022-10-01T13:47:36.276Z,19.10
2022-10-01T13:50:19.757Z,18.90
2022-10-01T13:52:53.132Z,18.70
2022-10-01T13:55:28.160Z,18.60
2022-10-01T13:58:04.563Z,18.50
2022-10-01T14:00:48.641Z,18.50
2022-10-01T14:03:28.888Z,18.40
2022-10-01T14:06:03.365Z,18.20
2022-10-01T14:08:40.557Z,18.20
2022-10-01T14:11:33.040Z,18.10
2022-10-01T14:14:29.461Z,17.90
2022-10-01T14:17:04.582Z,17.80
2022-10-01T14:19:38.190Z,17.70
2022-10-01T14:22:20.285Z,17.50
2022-10-01T14:25:03.263Z,17.40
2022-10-01T14:27:41.181Z,17.20
2022-10-01T14:30:16.386Z,17.10
2022-10-01T14:32:58.785Z,17.00
2022-10-01T14:35:32.553Z,16.80
2022-10-01T14:38:12.150Z,16.80
2022-10-01T14:40:47.840Z,16.70
2022-10-01T14:43:21.892Z,16.70
2022-10-01T14:45:56.320Z,16.60
2022-10-01T14:48:31.610Z,16.60
2022-10-01T14:51:06.018Z,16.60
2022-10-01T14:53:39.491Z,16.60
2022-10-01T14:56:13.878Z,16.60
2022-10-01T14:58:53.332Z,16.60
2022-10-01T15:01:26.659Z,16.60
2022-10-01T15:04:01.350Z,16.60
2022-10-01T15:06:42.558Z,16.60
2022-10-01T15:09:18.669Z,16.60
2022-10-01T15:11:52.360Z,16.60
2022-10-01T15:14:26.170Z,16.60
2022-10-01T15:17:03.125Z,16.50
2022-10-01T15:19:44.644Z,16.50
2022-10-01T15:22:18.201Z,16.40
2022-10-01T15:24:51.951Z,16.40
2022-10-01T15:27:26.038Z,16.40
2022-10-01T15:29:59.841Z,16.30
2022-10-01T15:32:32.984Z,16.30
2022-10-01T15:35:08.409Z,16.30
2022-10-01T15:37:44.744Z,16.20
2022-10-01T15:40:25.294Z,16.20
2022-10-01T15:43:22.592Z,16.20
2022-10-01T15:46:12.224Z,16.10
2022-10-01T15:48:45.758Z,16.10
2022-10-01T15:51:25.760Z,16.10
2022-10-01T15:54:03.154Z,16.00
2022-10-01T15:56:36.708Z,16.00
2022-10-01T15:59:12.057Z,16.00
2022-10-01T16:01:45.265Z,15.90
2022-10-01T16:04:18.435Z,15.90
2022-10-01T16:06:53.134Z,15.90
2022-10-01T16:09:27.769Z,15.90
2022-10-01T16:12:03.216Z,15.80
2022-10-01T16:14:39.349Z,15.80
2022-10-01T16:17:32.001Z,15.70
2022-10-01T16:20:21.782Z,15.70
2022-10-01T16:23:16.253Z,15.70
2022-10-01T16:25:49.470Z,15.70
2022-10-01T16:28:27.035Z,15.70
2022-10-01T16:31:00.250Z,15.70
2022-10-01T16:33:33.363Z,15.70
2022-10-01T16:36:09.263Z,15.60
2022-10-01T16:38:43.795Z,15.60
2022-10-01T16:41:20.270Z,15.60
2022-10-01T16:43:55.372Z,15.60
2022-10-01T16:46:28.610Z,15.60
2022-10-01T16:49:01.704Z,15.60
2022-10-01T16:51:34.987Z,15.60
2022-10-01T16:54:16.570Z,15.50
2022-10-01T16:56:50.667Z,15.50
2022-10-01T16:59:25.359Z,15.30
2022-10-01T17:02:00.884Z,15.30
2022-10-01T17:04:34.401Z,15.30
2022-10-01T17:07:07.912Z,15.20
2022-10-01T17:09:42.559Z,15.10
2022-10-01T17:12:15.823Z,15.10
2022-10-01T17:14:49.074Z,15.10
2022-10-01T17:17:22.287Z,15.00
2022-10-01T17:19:55.618Z,15.00
2022-10-01T17:22:29.015Z,14.90
2022-10-01T17:25:03.794Z,14.90
2022-10-01T17:27:37.000Z,14.90
2022-10-01T17:30:10.393Z,14.90
2022-10-01T17:32:44.043Z,14.80
2022-10-01T17:35:17.416Z,14.80
2022-10-01T17:37:50.613Z,14.80
2022-10-01T17:40:25.403Z,14.70
2022-10-01T17:42:58.615Z,14.70
2022-10-01T17:45:31.914Z,14.60
2022-10-01T17:48:05.303Z,14.50
2022-10-01T17:50:43.843Z,14.50
2022-10-01T17:53:17.222Z,14.40
2022-10-01T17:55:51.920Z,14.40
2022-10-01T17:58:25.335Z,14.40
2022-10-01T18:00:59.340Z,14.40
2022-10-01T18:03:32.693Z,14.40
2022-10-01T18:06:06.116Z,14.40
2022-10-01T18:08:54.756Z,14.40
2022-10-01T18:11:30.051Z,14.40
2022-10-01T18:14:04.628Z,14.30
2022-10-01T18:16:38.599Z,14.30
2022-10-01T18:22:13.658Z,14.20
2022-10-01T18:24:47.302Z,14.20
2022-10-01T18:27:22.047Z,14.20
2022-10-01T18:29:55.347Z,14.20
2022-10-01T18:32:32.481Z,14.20
2022-10-01T18:35:07.224Z,14.20
2022-10-01T18:37:43.897Z,14.20
2022-10-01T18:40:18.433Z,14.20
2022-10-01T18:42:56.287Z,14.20
2022-10-01T18:45:41.909Z,14.20
2022-10-01T18:48:35.042Z,14.20
2022-10-01T18:51:16.076Z,14.10
2022-10-01T18:54:00.743Z,14.10
2022-10-01T18:56:34.711Z,14.10
2022-10-01T18:59:22.002Z,14.10
2022-10-01T19:02:04.020Z,14.10
2022-10-01T19:04:45.944Z,14.10
2022-10-01T19:07:28.361Z,14.00
2022-10-01T19:10:07.668Z,14.00
2022-10-01T19:12:49.027Z,14.00
2022-10-01T19:15:29.683Z,13.90
2022-10-01T19:18:10.639Z,13.90
2022-10-01T19:20:55.065Z,13.90
2022-10-01T19:23:35.655Z,13.70
2022-10-01T19:26:12.033Z,13.80
2022-10-01T19:28:51.363Z,13.70
2022-10-01T19:31:29.922Z,13.70
2022-10-01T19:34:07.935Z,13.70
2022-10-01T19:36:42.621Z,13.60
2022-10-01T19:39:20.306Z,13.60
2022-10-01T19:41:56.575Z,13.60
2022-10-01T19:44:33.030Z,13.50
2022-10-01T19:47:15.684Z,13.50
2022-10-01T19:49:50.273Z,13.50
2022-10-01T19:52:25.272Z,13.50
2022-10-01T19:55:00.378Z,13.40
2022-10-01T19:57:39.139Z,13.40
2022-10-01T20:00:17.781Z,13.30
2022-10-01T20:02:57.211Z,13.30
2022-10-01T20:05:31.356Z,13.30
2022-10-01T20:08:06.431Z,13.30
2022-10-01T20:10:41.894Z,13.30
2022-10-01T20:13:26.520Z,13.30
2022-10-01T20:16:04.551Z,13.20
2022-10-01T20:18:42.502Z,13.20
2022-10-01T20:21:21.623Z,13.20
2022-10-01T20:23:57.148Z,13.10
2022-10-01T20:26:32.532Z,13.10
2022-10-01T20:29:13.482Z,13.10
2022-10-01T20:31:52.006Z,13.10
2022-10-01T20:34:32.956Z,13.10
2022-10-01T20:37:13.442Z,13.10
2022-10-01T20:39:49.213Z,13.10
2022-10-01T20:42:25.272Z,13.10
2022-10-01T20:45:00.643Z,13.10
2022-10-01T20:47:37.800Z,13.10
2022-10-01T20:50:15.731Z,13.10
2022-10-01T20:52:53.259Z,13.10
2022-10-01T20:55:29.413Z,13.10
2022-10-01T20:58:04.670Z,13.10
2022-10-01T21:00:38.658Z,13.00
2022-10-01T21:03:17.393Z,13.10
2022-10-01T21:05:52.889Z,13.00
2022-10-01T21:08:39.616Z,13.00
2022-10-01T21:11:15.665Z,12.90
2022-10-01T21:13:52.144Z,12.90
2022-10-01T21:16:36.069Z,12.80
2022-10-01T21:19:20.558Z,12.70
2022-10-01T21:22:01.433Z,12.70
2022-10-01T21:24:39.859Z,12.60
2022-10-01T21:27:19.582Z,12.50
2022-10-01T21:30:03.978Z,12.50
2022-10-01T21:32:42.834Z,12.50
2022-10-01T21:35:22.114Z,12.50
2022-10-01T21:38:01.608Z,12.30
2022-10-01T21:40:39.719Z,12.30
2022-10-01T21:43:20.934Z,12.20
2022-10-01T21:46:00.575Z,12.20
2022-10-01T21:48:39.560Z,12.20
2022-10-01T21:51:17.290Z,12.10
2022-10-01T21:54:06.680Z,12.10
2022-10-01T21:57:01.488Z,12.00
2022-10-01T21:59:50.867Z,12.00
2022-10-01T22:02:31.196Z,11.90
2022-10-01T22:05:09.511Z,11.90
2022-10-01T22:07:45.597Z,11.80
2022-10-01T22:10:25.235Z,11.80
2022-10-01T22:13:01.302Z,11.80
2022-10-01T22:15:37.509Z,11.80
2022-10-01T22:18:13.352Z,11.70
2022-10-01T22:20:47.377Z,11.80
2022-10-01T22:23:20.976Z,11.80
2022-10-01T22:25:58.158Z,11.70
2022-10-01T22:28:40.801Z,11.70
2022-10-01T22:31:18.254Z,11.70
2022-10-01T22:33:53.746Z,11.70
2022-10-01T22:36:30.441Z,11.60
2022-10-01T22:39:05.739Z,11.60
2022-10-01T22:41:43.625Z,11.60
2022-10-01T22:44:17.804Z,11.60
2022-10-01T22:47:00.503Z,11.60
2022-10-01T22:49:40.486Z,11.50
2022-10-01T22:52:19.036Z,11.50
2022-10-01T22:54:59.575Z,11.50
2022-10-01T22:57:40.384Z,11.50
2022-10-01T23:00:14.721Z,11.50
2022-10-01T23:02:54.661Z,11.50
2022-10-01T23:05:35.511Z,11.50
2022-10-01T23:08:15.008Z,11.40
2022-10-01T23:10:54.777Z,11.50
2022-10-01T23:13:31.156Z,11.50
2022-10-01T23:16:07.675Z,11.40
2022-10-01T23:18:44.196Z,11.50
2022-10-01T23:21:22.762Z,11.50
2022-10-01T23:23:59.680Z,11.50
2022-10-01T23:26:36.161Z,11.50
2022-10-01T23:29:26.546Z,11.50
2022-10-01T23:32:03.784Z,11.40
2022-10-01T23:34:44.043Z,11.40
2022-10-01T23:37:24.503Z,11.40
2022-10-01T23:40:00.252Z,11.40
2022-10-01T23:42:36.837Z,11.40
2022-10-01T23:45:21.041Z,11.40
2022-10-01T23:47:57.774Z,11.40
2022-10-01T23:50:32.559Z,11.40
2022-10-01T23:53:10.935Z,11.40
2022-10-01T23:56:04.262Z,11.40
2022-10-01T23:58:43.000Z,11.30
